Time;durP1;ratioP1;P1;durP2;ratioP2;P2;SDS_P1;SDS_P2;PMS_P1;PMS_P2;Temp;Humidity;BMP_temperature;BMP_pressure;BME280_temperature;BME280_humidity;BME280_pressure;Samples;Min_cycle;Max_cycle;Signal;HPM_P1;HPM_P2
2021/08/19 00:00:17;;;;;;;4.90;2.28;;;13.20;98.00;;;;;;5052886;28;20044;-72
2021/08/19 00:02:43;;;;;;;4.75;2.22;;;13.20;98.00;;;;;;5048182;28;20033;-72
2021/08/19 00:05:10;;;;;;;6.10;2.50;;;13.10;98.00;;;;;;5041997;28;20025;-71
2021/08/19 00:07:35;;;;;;;4.35;2.38;;;13.10;98.00;;;;;;5038016;28;20029;-71
2021/08/19 00:10:01;;;;;;;4.28;2.60;;;13.10;98.00;;;;;;5038803;28;20484;-72
2021/08/19 00:12:27;;;;;;;4.40;2.25;;;13.10;97.90;;;;;;5051175;28;20068;-71
2021/08/19 00:14:52;;;;;;;4.28;2.38;;;13.20;97.80;;;;;;5054784;28;20084;-71
2021/08/19 00:17:18;;;;;;;4.20;2.30;;;13.20;97.70;;;;;;5043206;28;20021;-71
2021/08/19 00:19:44;;;;;;;5.85;2.22;;;13.30;98.00;;;;;;5034420;28;20029;-71
2021/08/19 00:22:09;;;;;;;4.40;2.10;;;13.30;97.90;;;;;;5035591;28;20053;-71
2021/08/19 00:24:35;;;;;;;4.18;1.98;;;13.40;97.90;;;;;;5020819;28;20022;-72
2021/08/19 00:27:00;;;;;;;8.75;2.00;;;13.40;98.00;;;;;;5031921;28;20431;-72
2021/08/19 00:29:26;;;;;;;3.90;2.10;;;13.50;98.00;;;;;;5017253;28;20353;-72
2021/08/19 00:31:52;;;;;;;3.25;1.70;;;13.60;98.00;;;;;;5017446;28;20030;-73
2021/08/19 00:34:18;;;;;;;3.85;2.00;;;13.80;98.00;;;;;;5017758;28;20041;-71
2021/08/19 00:36:43;;;;;;;3.95;1.90;;;13.80;98.00;;;;;;5035181;28;20105;-71
2021/08/19 00:39:09;;;;;;;3.17;1.63;;;13.90;98.00;;;;;;5017780;28;20423;-71
2021/08/19 00:41:35;;;;;;;3.90;1.60;;;14.00;98.00;;;;;;5016428;28;20079;-71
2021/08/19 00:44:01;;;;;;;3.80;1.92;;;14.10;98.00;;;;;;5017708;28;20022;-71
2021/08/19 00:46:27;;;;;;;5.20;2.00;;;14.20;98.00;;;;;;5017747;28;20034;-71
2021/08/19 00:49:07;;;;;;;9.70;2.65;;;14.20;98.00;;;;;;5032646;28;20065;-72
2021/08/19 00:51:41;;;;;;;3.53;1.85;;;14.20;98.00;;;;;;5037365;28;20327;-71
2021/08/19 00:54:07;;;;;;;;;;;14.20;98.00;;;;;;5023861;28;20030;-72
2021/08/19 00:56:34;;;;;;;4.10;2.25;;;14.30;98.00;;;;;;5030577;28;20313;-71
2021/08/19 00:59:02;;;;;;;3.60;1.65;;;14.40;98.00;;;;;;5018283;28;20032;-70
2021/08/19 01:01:27;;;;;;;4.35;1.98;;;14.50;98.00;;;;;;5017308;28;20065;-71
2021/08/19 01:03:55;;;;;;;3.72;1.90;;;14.50;98.00;;;;;;5023403;28;20057;-70
2021/08/19 01:06:23;;;;;;;3.63;1.73;;;14.60;98.00;;;;;;5027813;28;20030;-71
2021/08/19 01:08:50;;;;;;;4.75;2.17;;;14.60;98.00;;;;;;5025262;28;20103;-73
2021/08/19 01:11:20;;;;;;;3.90;1.73;;;14.60;98.00;;;;;;5016157;28;20434;-72
2021/08/19 01:13:46;;;;;;;3.97;2.00;;;14.70;98.00;;;;;;5035380;28;20033;-72
2021/08/19 01:16:15;;;;;;;4.50;2.10;;;14.60;98.00;;;;;;5036765;28;20418;-72
2021/08/19 01:18:43;;;;;;;3.70;1.83;;;14.70;98.00;;;;;;5017012;28;20038;-71
2021/08/19 01:21:11;;;;;;;5.10;1.90;;;14.80;98.00;;;;;;5022938;28;20342;-72
2021/08/19 01:23:37;;;;;;;3.25;1.70;;;14.80;98.00;;;;;;5033342;28;20194;-71
2021/08/19 01:26:07;;;;;;;3.78;1.88;;;14.80;98.00;;;;;;5026742;28;20048;-72
2021/08/19 01:28:34;;;;;;;5.68;1.98;;;14.80;98.00;;;;;;5036802;28;20112;-71
2021/08/19 01:31:00;;;;;;;3.63;1.65;;;14.80;98.00;;;;;;5053401;28;20021;-71
2021/08/19 01:33:26;;;;;;;4.40;2.00;;;14.80;98.00;;;;;;5038419;28;20183;-70
2021/08/19 01:35:51;;;;;;;4.22;2.10;;;14.80;98.00;;;;;;5036602;28;20030;-71
2021/08/19 01:38:17;;;;;;;3.97;2.00;;;14.80;98.00;;;;;;5036410;28;20025;-71
2021/08/19 01:40:43;;;;;;;5.50;2.13;;;14.80;98.00;;;;;;5034010;28;20430;-71
2021/08/19 01:43:09;;;;;;;4.85;2.10;;;14.80;98.00;;;;;;5035847;28;20326;-71
2021/08/19 01:45:35;;;;;;;3.88;2.03;;;14.80;98.00;;;;;;5036076;28;20025;-71
2021/08/19 01:48:01;;;;;;;4.70;2.30;;;14.70;98.00;;;;;;5035266;28;20040;-71
2021/08/19 01:50:26;;;;;;;4.35;2.20;;;14.60;98.00;;;;;;5035892;28;20411;-70
2021/08/19 01:52:53;;;;;;;4.78;2.40;;;14.50;98.00;;;;;;5035484;28;20355;-72
2021/08/19 01:55:18;;;;;;;3.80;1.98;;;14.50;98.00;;;;;;5036006;28;20029;-72
2021/08/19 01:57:44;;;;;;;4.18;2.15;;;14.40;98.00;;;;;;5034879;28;20025;-72
2021/08/19 02:00:10;;;;;;;3.35;1.70;;;14.30;98.00;;;;;;5036132;28;20021;-72
2021/08/19 02:02:36;;;;;;;3.28;1.50;;;14.30;98.00;;;;;;5028935;28;20037;-71
2021/08/19 02:05:02;;;;;;;4.82;1.67;;;14.20;98.00;;;;;;5024782;28;20433;-71
2021/08/19 02:07:27;;;;;;;3.53;1.63;;;14.10;98.00;;;;;;5026842;28;20480;-71
2021/08/19 02:09:53;;;;;;;3.95;1.65;;;14.00;98.00;;;;;;5016212;28;20030;-71
2021/08/19 02:12:19;;;;;;;3.47;1.80;;;14.00;98.00;;;;;;5034358;28;20049;-72
2021/08/19 02:14:44;;;;;;;3.65;1.58;;;14.00;98.00;;;;;;5035964;28;20104;-72
2021/08/19 02:17:10;;;;;;;3.47;1.60;;;14.00;98.00;;;;;;5035109;28;20433;-72
2021/08/19 02:19:36;;;;;;;5.85;1.73;;;13.90;98.00;;;;;;5034035;28;20415;-72
2021/08/19 02:22:01;;;;;;;4.13;1.50;;;13.90;98.00;;;;;;5048129;28;20052;-72
2021/08/19 02:24:27;;;;;;;3.05;1.58;;;13.90;98.00;;;;;;5035975;28;20083;-72
2021/08/19 02:26:53;;;;;;;2.88;1.38;;;13.80;98.00;;;;;;5034704;28;20160;-72
2021/08/19 02:29:18;;;;;;;2.60;1.23;;;13.80;98.00;;;;;;5035894;28;20036;-74
2021/08/19 02:31:44;;;;;;;2.72;1.50;;;13.70;98.00;;;;;;5032602;28;20440;-72
2021/08/19 02:34:10;;;;;;;5.55;1.42;;;13.80;98.00;;;;;;5015905;28;20057;-72
2021/08/19 02:36:36;;;;;;;2.55;1.33;;;13.70;98.00;;;;;;5017758;28;20021;-72
2021/08/19 02:39:02;;;;;;;3.08;1.30;;;13.70;98.00;;;;;;5034340;28;20030;-72
2021/08/19 02:41:29;;;;;;;2.58;1.35;;;13.70;98.00;;;;;;5021050;28;20030;-71
2021/08/19 02:43:55;;;;;;;3.45;1.33;;;13.70;98.00;;;;;;5020041;28;20049;-71
2021/08/19 02:46:23;;;;;;;2.78;1.40;;;13.70;98.00;;;;;;5019747;28;20403;-73
2021/08/19 02:48:49;;;;;;;3.83;1.50;;;13.70;98.00;;;;;;5019955;28;20407;-70
2021/08/19 02:51:14;;;;;;;2.90;1.15;;;13.70;98.00;;;;;;5030085;28;20040;-71
2021/08/19 02:53:40;;;;;;;3.60;1.55;;;13.70;98.00;;;;;;5020761;28;20037;-71
2021/08/19 02:56:06;;;;;;;4.63;1.83;;;13.70;98.00;;;;;;5018741;28;20045;-71
2021/08/19 02:58:32;;;;;;;3.58;1.40;;;13.70;98.00;;;;;;5037596;28;20437;-72
2021/08/19 03:00:58;;;;;;;3.67;1.60;;;13.70;98.00;;;;;;5039471;28;20108;-71
2021/08/19 03:03:23;;;;;;;3.13;1.30;;;13.70;98.00;;;;;;5039425;28;20022;-71
2021/08/19 03:05:49;;;;;;;3.78;1.77;;;13.70;98.00;;;;;;5032290;28;20057;-71
2021/08/19 03:08:15;;;;;;;4.88;2.13;;;13.70;98.00;;;;;;5037354;28;20457;-71
2021/08/19 03:10:40;;;;;;;3.25;1.60;;;13.60;98.00;;;;;;5037968;28;20080;-71
2021/08/19 03:13:06;;;;;;;3.17;1.58;;;13.60;98.00;;;;;;5036211;28;20037;-72
2021/08/19 03:15:32;;;;;;;3.75;1.65;;;13.60;98.00;;;;;;5019296;28;20037;-72
2021/08/19 03:17:57;;;;;;;5.07;1.75;;;13.70;98.00;;;;;;5021399;28;20022;-72
2021/08/19 03:20:24;;;;;;;5.18;1.45;;;13.60;98.00;;;;;;5020499;28;20025;-71
2021/08/19 03:22:51;;;;;;;3.30;1.33;;;13.60;97.90;;;;;;5038185;28;20099;-71
2021/08/19 03:25:17;;;;;;;2.80;1.45;;;13.60;97.70;;;;;;5037117;28;20537;-72
2021/08/19 03:27:43;;;;;;;3.10;1.52;;;13.70;97.80;;;;;;5035656;28;20095;-71
2021/08/19 03:30:09;;;;;;;3.88;1.20;;;13.70;97.90;;;;;;5037584;28;20450;-71
2021/08/19 03:32:37;;;;;;;3.95;1.58;;;13.70;98.00;;;;;;5037411;28;20441;-71
2021/08/19 03:35:03;;;;;;;3.05;1.40;;;13.70;97.90;;;;;;5037516;28;20036;-72
2021/08/19 03:37:29;;;;;;;3.42;1.30;;;13.60;98.00;;;;;;5036946;28;20029;-71
2021/08/19 03:39:55;;;;;;;3.30;1.60;;;13.60;98.00;;;;;;5036526;28;20030;-71
2021/08/19 03:42:20;;;;;;;2.88;1.48;;;13.60;98.00;;;;;;5036452;28;20092;-71
2021/08/19 03:44:46;;;;;;;2.85;1.40;;;13.60;98.00;;;;;;5036282;28;20022;-70
2021/08/19 03:47:12;;;;;;;2.50;1.40;;;13.60;98.00;;;;;;5017528;28;20073;-70
2021/08/19 03:49:37;;;;;;;2.45;1.25;;;13.60;98.00;;;;;;5019304;28;20056;-70
2021/08/19 03:52:03;;;;;;;3.22;1.45;;;13.60;98.00;;;;;;5021541;28;20026;-71
2021/08/19 03:54:29;;;;;;;3.20;1.45;;;13.60;98.00;;;;;;5029119;28;20029;-70
2021/08/19 03:56:55;;;;;;;5.15;1.58;;;13.60;98.00;;;;;;5019675;28;20113;-69
2021/08/19 03:59:21;;;;;;;3.42;1.55;;;13.60;98.00;;;;;;5024607;28;20093;-70
2021/08/19 04:01:48;;;;;;;2.50;1.30;;;13.60;98.00;;;;;;5034083;28;20026;-70
2021/08/19 04:04:13;;;;;;;2.35;1.20;;;13.60;97.80;;;;;;5035319;28;20079;-72
2021/08/19 04:06:39;;;;;;;4.93;1.60;;;13.60;98.00;;;;;;5021934;28;20104;-72
2021/08/19 04:09:05;;;;;;;2.33;1.27;;;13.60;98.00;;;;;;5036737;28;20485;-72
2021/08/19 04:11:31;;;;;;;2.38;1.10;;;13.60;98.00;;;;;;5042920;28;20041;-73
2021/08/19 04:13:57;;;;;;;2.08;1.30;;;13.60;98.00;;;;;;5039188;28;20057;-71
2021/08/19 04:16:23;;;;;;;3.13;1.50;;;13.60;98.00;;;;;;5033540;28;20034;-72
2021/08/19 04:18:48;;;;;;;2.85;1.17;;;13.60;98.00;;;;;;5029065;28;20018;-72
2021/08/19 04:21:14;;;;;;;3.35;1.40;;;13.70;98.00;;;;;;5022879;28;20446;-72
2021/08/19 04:23:43;;;;;;;3.80;1.40;;;13.60;98.00;;;;;;4985251;28;1134085;-70
2021/08/19 04:26:10;;;;;;;2.42;1.30;;;13.60;98.00;;;;;;5035118;28;20148;-71
2021/08/19 04:28:35;;;;;;;3.05;1.30;;;13.60;98.00;;;;;;5022349;28;20359;-71
2021/08/19 04:31:01;;;;;;;2.60;1.30;;;13.60;98.00;;;;;;5027501;28;20026;-71
2021/08/19 04:33:28;;;;;;;3.20;1.30;;;13.60;98.00;;;;;;5034438;28;20426;-71
2021/08/19 04:35:55;;;;;;;3.25;1.50;;;13.60;98.00;;;;;;5037246;28;20041;-72
2021/08/19 04:38:20;;;;;;;4.70;1.52;;;13.70;98.00;;;;;;5035931;28;20021;-71
2021/08/19 04:40:46;;;;;;;3.83;1.35;;;13.60;98.00;;;;;;5019774;28;20026;-71
2021/08/19 04:43:12;;;;;;;2.95;1.35;;;13.60;98.00;;;;;;5017743;28;20105;-71
2021/08/19 04:45:37;;;;;;;2.60;1.30;;;13.70;98.00;;;;;;5028864;28;20112;-71
2021/08/19 04:48:04;;;;;;;2.67;1.40;;;13.60;98.00;;;;;;5019946;28;20060;-71
2021/08/19 04:50:29;;;;;;;3.25;1.70;;;13.70;98.00;;;;;;5023503;28;20426;-74
2021/08/19 04:52:55;;;;;;;3.00;1.35;;;13.70;98.00;;;;;;5032529;28;20108;-71
2021/08/19 04:55:20;;;;;;;3.95;1.42;;;13.80;98.00;;;;;;5037209;28;20120;-71
2021/08/19 04:57:46;;;;;;;2.47;1.20;;;13.90;98.00;;;;;;5028188;28;20025;-71
2021/08/19 05:00:12;;;;;;;3.35;1.20;;;13.80;98.00;;;;;;5017433;28;20037;-71
2021/08/19 05:02:38;;;;;;;2.58;1.20;;;13.90;98.00;;;;;;5030138;28;20026;-71
2021/08/19 05:05:05;;;;;;;3.03;1.60;;;13.90;98.00;;;;;;5036270;28;20044;-71
2021/08/19 05:07:30;;;;;;;2.70;1.20;;;13.90;98.00;;;;;;5032414;28;20030;-71
2021/08/19 05:09:57;;;;;;;2.88;1.58;;;13.90;98.00;;;;;;5024416;28;20033;-71
2021/08/19 05:12:22;;;;;;;2.90;1.40;;;14.10;98.00;;;;;;5033170;28;20334;-71
2021/08/19 05:14:48;;;;;;;3.20;1.58;;;14.10;98.00;;;;;;5037088;28;20021;-70
2021/08/19 05:17:14;;;;;;;3.40;1.60;;;14.10;98.00;;;;;;5021781;28;20040;-71
2021/08/19 05:19:40;;;;;;;3.67;1.67;;;14.20;98.00;;;;;;5032563;28;20025;-71
2021/08/19 05:22:05;;;;;;;3.03;1.48;;;14.20;98.00;;;;;;5034772;28;20456;-71
2021/08/19 05:24:31;;;;;;;3.78;1.50;;;14.20;98.00;;;;;;5036809;28;20109;-71
2021/08/19 05:26:57;;;;;;;3.28;1.33;;;14.30;98.00;;;;;;5034906;28;20022;-71
2021/08/19 05:29:22;;;;;;;2.72;1.30;;;14.40;98.00;;;;;;5034961;28;20466;-71
2021/08/19 05:31:48;;;;;;;3.42;1.67;;;14.50;98.00;;;;;;5040100;28;20117;-70
2021/08/19 05:34:13;;;;;;;3.53;1.50;;;14.60;98.00;;;;;;5049535;28;20073;-71
2021/08/19 05:36:40;;;;;;;2.95;1.45;;;14.80;98.00;;;;;;5024400;28;20022;-71
2021/08/19 05:39:05;;;;;;;3.67;1.40;;;14.80;98.00;;;;;;5025187;28;20338;-71
2021/08/19 05:41:31;;;;;;;3.20;1.73;;;14.90;98.00;;;;;;5029054;28;20024;-71
2021/08/19 05:43:57;;;;;;;2.80;1.40;;;15.00;98.00;;;;;;5016698;28;20049;-71
2021/08/19 05:46:23;;;;;;;3.30;1.60;;;15.20;98.00;;;;;;5036173;28;20435;-71
2021/08/19 05:48:48;;;;;;;4.28;1.50;;;15.10;98.00;;;;;;5034825;28;20017;-72
2021/08/19 05:51:14;;;;;;;3.47;1.40;;;15.30;98.00;;;;;;5035407;28;20084;-72
2021/08/19 05:53:41;;;;;;;2.45;1.30;;;15.40;98.00;;;;;;5034429;28;20032;-72
2021/08/19 05:56:07;;;;;;;4.47;1.63;;;15.40;98.00;;;;;;5033445;28;20053;-71
2021/08/19 05:58:32;;;;;;;4.85;1.45;;;15.50;98.00;;;;;;5035202;28;20647;-72
2021/08/19 06:00:58;;;;;;;3.80;1.30;;;15.60;98.00;;;;;;5034877;28;20029;-72
2021/08/19 06:03:24;;;;;;;2.72;1.20;;;15.70;98.00;;;;;;5016539;28;20022;-72
2021/08/19 06:05:50;;;;;;;2.95;1.40;;;15.70;98.00;;;;;;5016270;28;20037;-72
2021/08/19 06:08:16;;;;;;;2.60;1.25;;;15.70;98.00;;;;;;5016453;28;20023;-71
2021/08/19 06:10:41;;;;;;;2.55;1.40;;;15.80;98.00;;;;;;5017957;28;20025;-71
2021/08/19 06:13:07;;;;;;;4.30;1.50;;;15.80;98.00;;;;;;5032368;28;20029;-72
2021/08/19 06:15:33;;;;;;;3.55;1.42;;;15.80;98.00;;;;;;5035627;28;20052;-72
2021/08/19 06:17:59;;;;;;;4.97;1.70;;;15.90;98.00;;;;;;5034287;28;20027;-71
2021/08/19 06:20:25;;;;;;;4.15;1.63;;;16.00;98.00;;;;;;5035766;28;20410;-71
2021/08/19 06:22:52;;;;;;;3.33;1.40;;;16.00;98.00;;;;;;5035780;28;20308;-71
2021/08/19 06:25:21;;;;;;;3.67;1.60;;;16.10;98.00;;;;;;5034730;28;20116;-71
2021/08/19 06:27:47;;;;;;;4.20;1.85;;;16.10;98.00;;;;;;5034920;28;20430;-72
2021/08/19 06:30:14;;;;;;;3.20;1.60;;;16.20;98.00;;;;;;5035774;28;20434;-72
2021/08/19 06:32:40;;;;;;;4.68;1.40;;;16.30;98.00;;;;;;5034258;28;20033;-71
2021/08/19 06:35:10;;;;;;;2.33;1.20;;;16.40;98.00;;;;;;5035807;28;20029;-71
2021/08/19 06:37:37;;;;;;;4.53;2.00;;;16.50;97.90;;;;;;5031071;28;20053;-71
2021/08/19 06:40:03;;;;;;;2.67;1.23;;;16.50;98.00;;;;;;5015958;28;20088;-71
2021/08/19 06:42:31;;;;;;;2.50;1.23;;;16.40;97.90;;;;;;5025286;28;20044;-71
2021/08/19 06:45:00;;;;;;;3.28;1.40;;;16.60;97.50;;;;;;5034658;28;20026;-72
2021/08/19 06:47:26;;;;;;;3.47;1.35;;;16.70;97.40;;;;;;5035035;28;20772;-71
2021/08/19 06:49:51;;;;;;;4.03;1.50;;;16.70;97.20;;;;;;5035552;28;20026;-70
2021/08/19 06:52:17;;;;;;;2.80;1.20;;;16.60;97.50;;;;;;5033944;28;20025;-71
2021/08/19 06:54:45;;;;;;;3.60;1.38;;;16.70;96.90;;;;;;5035428;28;20029;-70
2021/08/19 06:57:11;;;;;;;2.78;1.40;;;16.80;96.40;;;;;;5034470;28;20025;-72
2021/08/19 06:59:37;;;;;;;3.83;1.40;;;16.80;96.90;;;;;;5032112;28;20037;-72
2021/08/19 07:02:03;;;;;;;2.25;1.17;;;16.80;97.00;;;;;;5029613;28;20062;-72
2021/08/19 07:04:28;;;;;;;2.33;1.17;;;16.80;96.50;;;;;;5033771;28;20112;-72
2021/08/19 07:06:54;;;;;;;2.40;1.30;;;16.80;96.60;;;;;;5035367;28;20021;-72
2021/08/19 07:09:19;;;;;;;4.38;1.50;;;16.80;96.70;;;;;;5031606;28;20334;-72
2021/08/19 07:11:45;;;;;;;2.88;1.40;;;16.80;96.50;;;;;;5034068;28;20064;-72
2021/08/19 07:14:12;;;;;;;3.58;1.40;;;16.90;96.50;;;;;;5024532;28;20028;-72
2021/08/19 07:16:38;;;;;;;3.05;1.30;;;17.00;96.70;;;;;;5034559;28;20104;-72
2021/08/19 07:19:05;;;;;;;9.05;1.30;;;17.20;95.40;;;;;;5033695;28;20096;-72
2021/08/19 07:21:30;;;;;;;2.95;1.10;;;17.20;96.00;;;;;;5031987;28;20080;-71
2021/08/19 07:23:56;;;;;;;2.30;1.08;;;17.40;94.40;;;;;;5015481;28;20050;-72
2021/08/19 07:26:24;;;;;;;3.50;1.27;;;17.50;94.20;;;;;;5025902;28;20086;-72
2021/08/19 07:28:53;;;;;;;3.03;1.20;;;17.70;93.90;;;;;;5022627;28;20040;-72
2021/08/19 07:31:20;;;;;;;2.75;1.30;;;17.80;93.20;;;;;;5033711;28;20430;-72
2021/08/19 07:33:46;;;;;;;4.07;1.13;;;18.00;93.20;;;;;;5026180;28;20095;-72
2021/08/19 07:36:12;;;;;;;4.00;1.23;;;18.20;92.70;;;;;;5038577;28;20034;-71
2021/08/19 07:38:37;;;;;;;4.63;1.10;;;18.40;92.40;;;;;;5032207;28;20030;-72
2021/08/19 07:41:03;;;;;;;3.95;1.30;;;18.50;91.80;;;;;;5018950;28;20026;-72
2021/08/19 07:43:29;;;;;;;2.22;0.98;;;18.90;91.00;;;;;;5038461;28;20112;-72
2021/08/19 07:45:57;;;;;;;3.28;1.00;;;18.90;88.90;;;;;;5030458;28;20018;-72
2021/08/19 07:48:22;;;;;;;2.13;0.98;;;18.80;89.40;;;;;;5018827;28;20038;-72
2021/08/19 07:50:51;;;;;;;2.90;1.15;;;18.80;90.30;;;;;;5029673;28;20028;-72
2021/08/19 07:53:17;;;;;;;1.75;0.88;;;19.30;89.40;;;;;;5038062;28;20029;-72
2021/08/19 07:55:43;;;;;;;3.00;1.40;;;19.80;86.90;;;;;;5037205;28;20037;-72
2021/08/19 07:58:09;;;;;;;2.85;1.02;;;20.10;87.60;;;;;;5038484;28;20034;-72
2021/08/19 08:00:35;;;;;;;2.20;1.00;;;20.30;84.90;;;;;;5038540;28;20425;-72
2021/08/19 08:03:02;;;;;;;2.60;0.80;;;20.50;86.00;;;;;;5038411;28;20029;-72
2021/08/19 08:05:31;;;;;;;2.13;0.90;;;21.00;84.30;;;;;;5038331;28;20433;-72
2021/08/19 08:08:08;;;;;;;2.08;1.00;;;21.30;83.10;;;;;;5037584;28;20425;-72
2021/08/19 08:10:38;;;;;;;1.35;0.80;;;21.40;82.70;;;;;;5036643;28;20026;-72
2021/08/19 08:13:08;;;;;;;1.58;0.75;;;22.30;80.50;;;;;;5038390;28;20080;-72
2021/08/19 08:15:34;;;;;;;2.40;1.20;;;22.80;77.10;;;;;;5038096;28;20087;-72
2021/08/19 08:18:00;;;;;;;2.78;1.40;;;22.40;79.10;;;;;;5037958;28;20113;-72
2021/08/19 08:20:26;;;;;;;3.05;1.45;;;22.20;80.40;;;;;;5038052;28;20061;-72
2021/08/19 08:22:51;;;;;;;2.70;1.30;;;22.30;79.00;;;;;;5037654;28;20091;-72
2021/08/19 08:25:18;;;;;;;2.92;1.20;;;22.50;78.60;;;;;;5037508;28;20026;-72
2021/08/19 08:27:53;;;;;;;2.88;1.10;;;23.00;77.60;;;;;;5026933;28;20493;-72
2021/08/19 08:30:20;;;;;;;2.13;0.90;;;22.40;79.50;;;;;;5017960;28;20217;-72
2021/08/19 08:32:45;;;;;;;3.55;1.20;;;22.50;79.80;;;;;;5027236;28;20318;-72
2021/08/19 08:35:12;;;;;;;2.05;1.00;;;22.70;78.50;;;;;;5036054;28;20033;-72
2021/08/19 08:37:38;;;;;;;2.08;0.90;;;22.60;79.70;;;;;;5034530;28;20417;-72
2021/08/19 08:40:04;;;;;;;2.55;0.90;;;23.30;78.60;;;;;;5036211;28;20030;-71
2021/08/19 08:42:30;;;;;;;2.03;0.88;;;24.30;76.10;;;;;;5027536;28;20034;-71
2021/08/19 08:44:56;;;;;;;3.58;1.05;;;24.60;75.00;;;;;;5017929;28;20037;-72
2021/08/19 08:47:22;;;;;;;3.55;0.93;;;24.90;73.50;;;;;;5025050;28;20072;-72
2021/08/19 08:49:48;;;;;;;1.58;0.80;;;25.30;73.60;;;;;;5037423;28;20033;-71
2021/08/19 08:52:13;;;;;;;2.55;0.80;;;25.60;70.70;;;;;;5029094;28;20374;-71
2021/08/19 08:54:39;;;;;;;1.73;0.70;;;25.50;69.60;;;;;;5018653;28;20316;-72
2021/08/19 08:57:05;;;;;;;1.25;0.80;;;26.20;68.40;;;;;;5035028;28;20315;-72
2021/08/19 08:59:30;;;;;;;0.68;0.47;;;26.30;68.80;;;;;;5036607;28;21566;-72
2021/08/19 09:01:56;;;;;;;2.40;0.90;;;26.80;66.00;;;;;;5030955;28;20104;-72
2021/08/19 09:04:23;;;;;;;0.85;0.60;;;26.90;67.60;;;;;;5017533;28;20034;-72
2021/08/19 09:06:49;;;;;;;1.27;0.60;;;27.40;62.00;;;;;;5030188;28;20029;-72
2021/08/19 09:09:21;;;;;;;1.95;0.85;;;26.00;67.70;;;;;;5028222;28;20037;-72
2021/08/19 09:12:00;;;;;;;2.58;1.10;;;23.90;68.50;;;;;;5017073;28;20033;-71
2021/08/19 09:14:30;;;;;;;1.88;0.98;;;21.80;75.20;;;;;;5032309;28;20103;-71
2021/08/19 09:16:56;;;;;;;4.22;1.13;;;20.80;79.80;;;;;;5036833;28;20029;-71
2021/08/19 09:19:27;;;;;;;2.92;1.08;;;20.40;83.60;;;;;;5037010;28;20051;-71
2021/08/19 09:21:56;;;;;;;15.70;1.30;;;19.90;87.10;;;;;;5027018;28;20112;-71
2021/08/19 09:24:27;;;;;;;2.88;1.30;;;19.50;88.80;;;;;;5024619;28;20026;-71
2021/08/19 09:26:55;;;;;;;2.28;1.20;;;19.30;89.40;;;;;;5034405;28;20051;-71
2021/08/19 09:29:29;;;;;;;3.80;1.42;;;19.30;89.30;;;;;;5036511;28;20025;-70
2021/08/19 09:32:07;;;;;;;3.25;1.25;;;19.50;89.80;;;;;;5029082;28;20033;-71
2021/08/19 09:34:34;;;;;;;9.80;2.17;;;19.40;88.90;;;;;;5025352;28;20334;-71
2021/08/19 09:37:05;;;;;;;3.08;1.20;;;19.40;89.50;;;;;;5016920;28;20306;-71
2021/08/19 09:39:39;;;;;;;2.63;1.13;;;19.50;89.30;;;;;;5017846;28;20033;-71
2021/08/19 09:42:06;;;;;;;2.45;1.02;;;19.70;88.10;;;;;;5016579;28;20417;-70
2021/08/19 09:44:34;;;;;;;4.07;1.60;;;19.90;87.30;;;;;;5016668;28;20112;-70
2021/08/19 09:47:01;;;;;;;5.55;1.40;;;20.20;86.60;;;;;;5018935;28;20021;-70
2021/08/19 09:49:29;;;;;;;2.30;1.00;;;20.40;85.90;;;;;;5025831;28;20034;-70
2021/08/19 09:52:15;;;;;;;1.75;0.90;;;20.30;85.80;;;;;;5028060;28;20025;-72
2021/08/19 09:54:41;;;;;;;1.63;0.90;;;20.80;84.70;;;;;;5034583;28;20033;-72
2021/08/19 09:57:09;;;;;;;4.45;1.10;;;21.40;84.40;;;;;;5035045;28;20020;-71
2021/08/19 09:59:38;;;;;;;3.22;1.30;;;21.90;81.50;;;;;;5026512;28;20104;-72
2021/08/19 10:02:09;;;;;;;3.25;1.20;;;22.90;79.60;;;;;;5016542;28;20026;-72
2021/08/19 10:04:35;;;;;;;3.00;1.30;;;23.60;75.80;;;;;;5016376;28;20419;-72
2021/08/19 10:07:03;;;;;;;2.45;1.10;;;24.20;74.10;;;;;;5016492;28;20022;-72
2021/08/19 10:09:29;;;;;;;2.53;1.10;;;25.10;73.30;;;;;;5026964;28;20112;-72
2021/08/19 10:11:56;;;;;;;3.03;1.00;;;25.50;70.90;;;;;;5031509;28;20029;-72
2021/08/19 10:14:30;;;;;;;1.98;0.95;;;25.70;72.40;;;;;;5040226;28;20069;-72
2021/08/19 10:16:57;;;;;;;2.60;1.13;;;26.70;68.70;;;;;;5037369;28;20025;-72
2021/08/19 10:19:33;;;;;;;2.22;1.10;;;27.20;67.90;;;;;;5020271;28;20029;-72
2021/08/19 10:22:17;;;;;;;2.58;1.20;;;27.60;67.00;;;;;;5046362;28;20091;-71
2021/08/19 10:24:49;;;;;;;3.95;1.38;;;27.60;66.20;;;;;;5027004;28;20338;-72
2021/08/19 10:27:24;;;;;;;3.08;1.17;;;27.60;65.30;;;;;;5016949;28;20030;-71
2021/08/19 10:29:51;;;;;;;2.63;1.10;;;27.00;65.70;;;;;;5018224;28;20121;-72
2021/08/19 10:32:25;;;;;;;3.03;1.13;;;26.00;69.30;;;;;;5017013;28;20025;-72
2021/08/19 10:35:03;;;;;;;1.92;0.90;;;25.70;70.40;;;;;;5028262;28;20322;-72
2021/08/19 10:37:47;;;;;;;3.58;1.90;;;25.10;69.80;;;;;;5016188;28;20022;-72
2021/08/19 10:40:22;;;;;;;2.78;1.10;;;23.90;71.50;;;;;;5016020;28;20037;-72
2021/08/19 10:42:52;;;;;;;2.72;1.15;;;23.10;74.90;;;;;;5015144;28;20025;-71
2021/08/19 10:45:27;;;;;;;3.45;1.48;;;22.40;76.70;;;;;;5022932;28;20322;-72
2021/08/19 10:48:01;;;;;;;2.28;1.08;;;22.00;78.60;;;;;;5032185;28;20037;-72
2021/08/19 10:50:32;;;;;;;3.45;1.50;;;21.60;78.60;;;;;;5027010;28;20033;-71
2021/08/19 10:53:22;;;;;;;3.78;1.45;;;21.10;79.30;;;;;;5031431;28;20434;-72
2021/08/19 10:55:55;;;;;;;2.58;1.20;;;22.00;79.70;;;;;;5029853;28;20033;-71
2021/08/19 10:58:28;;;;;;;2.78;1.10;;;23.60;74.30;;;;;;5022649;28;20071;-72
2021/08/19 11:01:00;;;;;;;4.53;1.90;;;23.60;73.40;;;;;;5034661;28;20032;-71
2021/08/19 11:03:37;;;;;;;2.78;1.30;;;23.20;74.50;;;;;;5036138;28;20026;-71
2021/08/19 11:06:05;;;;;;;2.97;1.40;;;22.70;76.20;;;;;;5032747;28;20357;-72
2021/08/19 11:08:59;;;;;;;3.58;1.88;;;22.20;76.90;;;;;;5038735;28;20021;-72
2021/08/19 11:11:36;;;;;;;3.05;1.33;;;21.80;77.90;;;;;;5037120;28;20476;-71
2021/08/19 11:14:17;;;;;;;3.92;1.30;;;21.50;80.80;;;;;;5030838;28;20073;-70
2021/08/19 11:16:53;;;;;;;2.72;1.23;;;21.50;79.90;;;;;;5021052;28;20068;-70
2021/08/19 11:19:21;;;;;;;2.95;1.50;;;21.40;80.80;;;;;;5035030;28;20021;-70
2021/08/19 11:21:59;;;;;;;3.60;1.80;;;21.00;81.90;;;;;;5040617;28;20079;-69
2021/08/19 11:24:28;;;;;;;3.58;1.70;;;20.80;83.30;;;;;;5035104;28;20051;-70
2021/08/19 11:27:00;;;;;;;3.28;1.50;;;20.80;83.80;;;;;;5037643;28;20340;-69
2021/08/19 11:29:30;;;;;;;3.03;1.50;;;20.90;83.20;;;;;;5033562;28;20376;-71
2021/08/19 11:31:56;;;;;;;2.95;1.48;;;20.90;82.30;;;;;;5034730;28;20026;-71
2021/08/19 11:34:21;;;;;;;3.22;1.40;;;21.00;81.40;;;;;;5031121;28;20032;-71
2021/08/19 11:36:52;;;;;;;2.58;1.40;;;20.90;82.10;;;;;;5040474;28;20078;-70
2021/08/19 11:39:25;;;;;;;4.30;1.60;;;21.10;81.50;;;;;;5045952;28;20109;-71
2021/08/19 11:41:56;;;;;;;3.47;1.63;;;21.30;81.70;;;;;;5025158;28;20376;-71
2021/08/19 11:44:22;;;;;;;3.88;1.70;;;21.60;80.60;;;;;;5033206;28;20029;-71
2021/08/19 11:46:48;;;;;;;4.25;1.70;;;21.70;80.50;;;;;;5027742;28;20033;-71
2021/08/19 11:49:14;;;;;;;4.40;1.92;;;22.00;78.60;;;;;;5023035;28;20288;-71
2021/08/19 11:51:42;;;;;;;3.33;1.63;;;22.40;78.60;;;;;;5036439;28;20061;-71
2021/08/19 11:54:15;;;;;;;3.40;1.33;;;22.80;77.70;;;;;;5037549;28;20068;-71
2021/08/19 11:56:48;;;;;;;3.05;1.30;;;23.40;76.50;;;;;;5033293;28;20022;-71
2021/08/19 11:59:16;;;;;;;2.78;1.40;;;23.70;75.30;;;;;;5026586;28;20022;-71
2021/08/19 12:01:51;;;;;;;3.08;1.50;;;23.60;75.50;;;;;;5026409;28;20364;-71
2021/08/19 12:04:30;;;;;;;3.53;1.40;;;23.70;74.90;;;;;;5025189;28;20095;-69
2021/08/19 12:07:02;;;;;;;3.22;1.55;;;24.10;72.80;;;;;;5038329;28;20414;-69
2021/08/19 12:09:32;;;;;;;5.28;1.50;;;24.40;72.80;;;;;;5033636;28;20034;-71
2021/08/19 12:12:03;;;;;;;3.22;1.20;;;24.60;73.70;;;;;;5036517;28;20110;-71
2021/08/19 12:14:29;;;;;;;3.42;1.40;;;25.00;71.80;;;;;;5019657;28;20030;-71
2021/08/19 12:16:56;;;;;;;3.20;1.30;;;24.80;71.80;;;;;;5024187;28;20018;-71
2021/08/19 12:19:28;;;;;;;2.78;1.50;;;24.50;71.80;;;;;;5022327;28;20037;-71
2021/08/19 12:21:55;;;;;;;2.90;1.48;;;24.30;71.80;;;;;;5033308;28;20103;-71
2021/08/19 12:24:35;;;;;;;3.17;1.58;;;24.30;71.90;;;;;;5029102;28;20025;-71
2021/08/19 12:27:07;;;;;;;2.85;1.38;;;24.30;72.50;;;;;;5020159;28;20036;-71
2021/08/19 12:29:36;;;;;;;2.58;1.10;;;24.00;73.00;;;;;;5036966;28;20049;-72
2021/08/19 12:32:02;;;;;;;3.30;1.30;;;23.60;74.10;;;;;;5028532;28;20441;-71
2021/08/19 12:34:29;;;;;;;2.88;1.30;;;23.40;74.40;;;;;;5020038;28;20033;-71
2021/08/19 12:37:11;;;;;;;2.72;1.40;;;23.50;76.20;;;;;;5027460;28;20468;-70
2021/08/19 12:39:47;;;;;;;2.85;1.60;;;23.10;75.30;;;;;;5032866;28;20022;-70
2021/08/19 12:42:14;;;;;;;4.00;1.52;;;23.20;74.90;;;;;;5040914;28;20029;-71
2021/08/19 12:44:40;;;;;;;3.63;1.40;;;23.00;74.90;;;;;;5034749;28;20091;-72
2021/08/19 12:47:06;;;;;;;3.85;1.40;;;23.20;75.80;;;;;;5028925;28;20025;-70
2021/08/19 12:49:36;;;;;;;2.35;1.17;;;23.60;75.70;;;;;;5019122;28;20030;-70